sensor_id;sensor_type;location;lat;lon;timestamp;temperature;humidity
17565;DHT22;62994;52.126;5.596;2022-11-09T00:02:11;14.20;99.90
17565;DHT22;62994;52.126;5.596;2022-11-09T00:04:39;14.20;99.90
17565;DHT22;62994;52.126;5.596;2022-11-09T00:07:11;14.20;99.90
17565;DHT22;62994;52.126;5.596;2022-11-09T00:09:39;14.20;99.90
17565;DHT22;62994;52.126;5.596;2022-11-09T00:12:11;14.30;99.90
17565;DHT22;62994;52.126;5.596;2022-11-09T00:14:41;14.20;99.90
17565;DHT22;62994;52.126;5.596;2022-11-09T00:17:11;14.20;99.90
17565;DHT22;62994;52.126;5.596;2022-11-09T00:19:41;14.20;99.90
17565;DHT22;62994;52.126;5.596;2022-11-09T00:22:12;14.20;99.90
17565;DHT22;62994;52.126;5.596;2022-11-09T00:24:46;14.20;99.90
17565;DHT22;62994;52.126;5.596;2022-11-09T00:27:20;14.20;99.90
17565;DHT22;62994;52.126;5.596;2022-11-09T00:30:03;14.20;99.90
17565;DHT22;62994;52.126;5.596;2022-11-09T00:32:41;14.20;99.90
17565;DHT22;62994;52.126;5.596;2022-11-09T00:35:28;14.20;99.90
17565;DHT22;62994;52.126;5.596;2022-11-09T00:38:04;14.40;99.90
17565;DHT22;62994;52.126;5.596;2022-11-09T00:40:39;14.20;99.90
17565;DHT22;62994;52.126;5.596;2022-11-09T00:43:08;14.20;99.90
17565;DHT22;62994;52.126;5.596;2022-11-09T00:45:43;14.20;99.90
17565;DHT22;62994;52.126;5.596;2022-11-09T00:48:15;14.10;99.90
17565;DHT22;62994;52.126;5.596;2022-11-09T00:50:54;14.20;99.90
17565;DHT22;62994;52.126;5.596;2022-11-09T00:53:23;14.10;99.90
17565;DHT22;62994;52.126;5.596;2022-11-09T00:55:57;14.10;99.90
17565;DHT22;62994;52.126;5.596;2022-11-09T00:58:28;14.10;99.90
17565;DHT22;62994;52.126;5.596;2022-11-09T01:01:15;14.00;99.90
17565;DHT22;62994;52.126;5.596;2022-11-09T01:03:55;14.00;99.90
17565;DHT22;62994;52.126;5.596;2022-11-09T01:06:41;13.90;99.90
17565;DHT22;62994;52.126;5.596;2022-11-09T01:09:18;14.00;99.90
17565;DHT22;62994;52.126;5.596;2022-11-09T01:11:50;13.90;99.90
17565;DHT22;62994;52.126;5.596;2022-11-09T01:14:26;13.90;99.90
17565;DHT22;62994;52.126;5.596;2022-11-09T01:17:07;13.90;99.90
17565;DHT22;62994;52.126;5.596;2022-11-09T01:26:21;13.80;99.90
17565;DHT22;62994;52.126;5.596;2022-11-09T01:29:17;13.80;99.90
17565;DHT22;62994;52.126;5.596;2022-11-09T01:32:13;13.80;99.90
17565;DHT22;62994;52.126;5.596;2022-11-09T01:35:04;13.80;99.90
17565;DHT22;62994;52.126;5.596;2022-11-09T01:37:55;13.80;99.90
17565;DHT22;62994;52.126;5.596;2022-11-09T01:40:59;13.80;99.90
17565;DHT22;62994;52.126;5.596;2022-11-09T01:44:24;13.70;99.90
17565;DHT22;62994;52.126;5.596;2022-11-09T01:47:20;13.70;99.90
17565;DHT22;62994;52.126;5.596;2022-11-09T01:50:12;13.70;99.90
17565;DHT22;62994;52.126;5.596;2022-11-09T01:53:27;13.70;99.90
17565;DHT22;62994;52.126;5.596;2022-11-09T01:56:45;13.70;99.90
17565;DHT22;62994;52.126;5.596;2022-11-09T01:59:52;13.70;99.90
17565;DHT22;62994;52.126;5.596;2022-11-09T02:05:56;13.60;99.90
17565;DHT22;62994;52.126;5.596;2022-11-09T02:08:59;13.60;99.90
17565;DHT22;62994;52.126;5.596;2022-11-09T02:11:39;13.60;99.90
17565;DHT22;62994;52.126;5.596;2022-11-09T02:14:11;13.50;99.90
17565;DHT22;62994;52.126;5.596;2022-11-09T02:16:46;13.50;99.90
17565;DHT22;62994;52.126;5.596;2022-11-09T02:19:17;13.50;99.90
17565;DHT22;62994;52.126;5.596;2022-11-09T02:21:49;13.50;99.90
17565;DHT22;62994;52.126;5.596;2022-11-09T02:24:17;13.50;99.90
17565;DHT22;62994;52.126;5.596;2022-11-09T02:26:47;13.40;99.90
17565;DHT22;62994;52.126;5.596;2022-11-09T02:29:24;13.40;99.90
17565;DHT22;62994;52.126;5.596;2022-11-09T02:32:03;13.40;99.90
17565;DHT22;62994;52.126;5.596;2022-11-09T02:34:33;13.50;99.90
17565;DHT22;62994;52.126;5.596;2022-11-09T02:37:05;13.50;99.90
17565;DHT22;62994;52.126;5.596;2022-11-09T02:39:38;13.40;99.90
17565;DHT22;62994;52.126;5.596;2022-11-09T02:42:13;13.40;99.90
17565;DHT22;62994;52.126;5.596;2022-11-09T02:44:51;13.40;99.90
17565;DHT22;62994;52.126;5.596;2022-11-09T02:47:35;13.40;99.90
17565;DHT22;62994;52.126;5.596;2022-11-09T02:50:04;13.40;99.90
17565;DHT22;62994;52.126;5.596;2022-11-09T02:52:36;13.50;99.90
17565;DHT22;62994;52.126;5.596;2022-11-09T02:55:09;13.40;99.90
17565;DHT22;62994;52.126;5.596;2022-11-09T02:57:49;13.40;99.90
17565;DHT22;62994;52.126;5.596;2022-11-09T03:00:28;13.40;99.90
17565;DHT22;62994;52.126;5.596;2022-11-09T03:03:00;13.40;99.90
17565;DHT22;62994;52.126;5.596;2022-11-09T03:05:49;13.50;99.90
17565;DHT22;62994;52.126;5.596;2022-11-09T03:08:27;13.40;99.90
17565;DHT22;62994;52.126;5.596;2022-11-09T03:11:00;13.40;99.90
17565;DHT22;62994;52.126;5.596;2022-11-09T03:13:31;13.40;99.90
17565;DHT22;62994;52.126;5.596;2022-11-09T03:16:10;13.40;99.90
17565;DHT22;62994;52.126;5.596;2022-11-09T03:18:40;13.50;99.90
17565;DHT22;62994;52.126;5.596;2022-11-09T03:21:12;13.40;99.90
17565;DHT22;62994;52.126;5.596;2022-11-09T03:23:55;13.50;99.90
17565;DHT22;62994;52.126;5.596;2022-11-09T03:26:26;13.50;99.90
17565;DHT22;62994;52.126;5.596;2022-11-09T03:29:05;13.50;99.90
17565;DHT22;62994;52.126;5.596;2022-11-09T03:31:35;13.50;99.90
17565;DHT22;62994;52.126;5.596;2022-11-09T03:34:05;13.50;99.90
17565;DHT22;62994;52.126;5.596;2022-11-09T03:36:49;13.50;99.90
17565;DHT22;62994;52.126;5.596;2022-11-09T03:39:25;13.50;99.90
17565;DHT22;62994;52.126;5.596;2022-11-09T03:41:55;13.50;99.90
17565;DHT22;62994;52.126;5.596;2022-11-09T03:44:22;13.50;99.90
17565;DHT22;62994;52.126;5.596;2022-11-09T03:46:52;13.40;99.90
17565;DHT22;62994;52.126;5.596;2022-11-09T03:49:26;13.40;99.90
17565;DHT22;62994;52.126;5.596;2022-11-09T03:51:55;13.40;99.90
17565;DHT22;62994;52.126;5.596;2022-11-09T03:54:45;13.40;99.90
17565;DHT22;62994;52.126;5.596;2022-11-09T03:57:25;13.40;99.90
17565;DHT22;62994;52.126;5.596;2022-11-09T03:59:57;13.50;99.90
17565;DHT22;62994;52.126;5.596;2022-11-09T04:02:27;13.50;99.90
17565;DHT22;62994;52.126;5.596;2022-11-09T04:04:54;13.40;99.90
17565;DHT22;62994;52.126;5.596;2022-11-09T04:07:36;13.40;99.90
17565;DHT22;62994;52.126;5.596;2022-11-09T04:10:11;13.40;99.90
17565;DHT22;62994;52.126;5.596;2022-11-09T04:12:47;13.40;99.90
17565;DHT22;62994;52.126;5.596;2022-11-09T04:15:22;13.30;99.90
17565;DHT22;62994;52.126;5.596;2022-11-09T04:17:58;13.30;99.90
17565;DHT22;62994;52.126;5.596;2022-11-09T04:20:30;13.30;99.90
17565;DHT22;62994;52.126;5.596;2022-11-09T04:23:03;13.30;99.90
17565;DHT22;62994;52.126;5.596;2022-11-09T04:25:35;13.20;99.90
17565;DHT22;62994;52.126;5.596;2022-11-09T04:28:10;13.20;99.90
17565;DHT22;62994;52.126;5.596;2022-11-09T04:30:41;13.20;99.90
17565;DHT22;62994;52.126;5.596;2022-11-09T04:33:17;13.20;99.90
17565;DHT22;62994;52.126;5.596;2022-11-09T04:36:06;13.20;99.90
17565;DHT22;62994;52.126;5.596;2022-11-09T04:38:48;13.20;99.90
17565;DHT22;62994;52.126;5.596;2022-11-09T04:41:30;13.10;99.90
17565;DHT22;62994;52.126;5.596;2022-11-09T04:44:10;13.10;99.90
17565;DHT22;62994;52.126;5.596;2022-11-09T04:46:42;13.10;99.90
17565;DHT22;62994;52.126;5.596;2022-11-09T04:49:12;13.10;99.90
17565;DHT22;62994;52.126;5.596;2022-11-09T04:51:53;13.10;99.90
17565;DHT22;62994;52.126;5.596;2022-11-09T04:54:27;13.10;99.90
17565;DHT22;62994;52.126;5.596;2022-11-09T04:57:20;13.00;99.90
17565;DHT22;62994;52.126;5.596;2022-11-09T05:00:05;13.10;99.90
17565;DHT22;62994;52.126;5.596;2022-11-09T05:02:38;13.00;99.90
17565;DHT22;62994;52.126;5.596;2022-11-09T05:05:13;13.10;99.90
17565;DHT22;62994;52.126;5.596;2022-11-09T05:07:48;13.00;99.90
17565;DHT22;62994;52.126;5.596;2022-11-09T05:10:25;13.00;99.90
17565;DHT22;62994;52.126;5.596;2022-11-09T05:13:10;13.00;99.90
17565;DHT22;62994;52.126;5.596;2022-11-09T05:16:01;13.00;99.90
17565;DHT22;62994;52.126;5.596;2022-11-09T05:18:57;13.00;99.90
17565;DHT22;62994;52.126;5.596;2022-11-09T05:21:31;13.00;99.90
17565;DHT22;62994;52.126;5.596;2022-11-09T05:24:07;13.00;99.90
17565;DHT22;62994;52.126;5.596;2022-11-09T05:26:40;13.00;99.90
17565;DHT22;62994;52.126;5.596;2022-11-09T05:29:26;13.00;99.90
17565;DHT22;62994;52.126;5.596;2022-11-09T05:32:02;13.00;99.90
17565;DHT22;62994;52.126;5.596;2022-11-09T05:34:38;13.00;99.90
17565;DHT22;62994;52.126;5.596;2022-11-09T05:37:13;13.00;99.90
17565;DHT22;62994;52.126;5.596;2022-11-09T05:39:50;13.10;99.90
17565;DHT22;62994;52.126;5.596;2022-11-09T05:42:27;13.00;99.90
17565;DHT22;62994;52.126;5.596;2022-11-09T05:44:58;13.00;99.90
17565;DHT22;62994;52.126;5.596;2022-11-09T05:47:49;13.00;99.90
17565;DHT22;62994;52.126;5.596;2022-11-09T05:50:31;13.00;99.90
17565;DHT22;62994;52.126;5.596;2022-11-09T05:53:11;12.90;99.90
17565;DHT22;62994;52.126;5.596;2022-11-09T05:56:03;13.00;99.90
17565;DHT22;62994;52.126;5.596;2022-11-09T05:58:47;12.90;99.90
17565;DHT22;62994;52.126;5.596;2022-11-09T06:01:24;13.00;99.90
17565;DHT22;62994;52.126;5.596;2022-11-09T06:04:11;12.90;99.90
17565;DHT22;62994;52.126;5.596;2022-11-09T06:07:29;12.90;99.90
17565;DHT22;62994;52.126;5.596;2022-11-09T06:09:53;12.90;99.90
17565;DHT22;62994;52.126;5.596;2022-11-09T06:12:30;12.90;99.90
17565;DHT22;62994;52.126;5.596;2022-11-09T06:15:00;12.90;99.90
17565;DHT22;62994;52.126;5.596;2022-11-09T06:17:33;12.90;99.90
17565;DHT22;62994;52.126;5.596;2022-11-09T06:20:04;12.90;99.90
17565;DHT22;62994;52.126;5.596;2022-11-09T06:22:37;12.90;99.90
17565;DHT22;62994;52.126;5.596;2022-11-09T06:25:11;12.90;99.90
17565;DHT22;62994;52.126;5.596;2022-11-09T06:27:45;12.90;99.90
17565;DHT22;62994;52.126;5.596;2022-11-09T06:30:15;12.80;99.90
17565;DHT22;62994;52.126;5.596;2022-11-09T06:33:08;12.80;99.90
17565;DHT22;62994;52.126;5.596;2022-11-09T06:35:43;12.80;99.90
17565;DHT22;62994;52.126;5.596;2022-11-09T06:38:13;12.80;99.90
17565;DHT22;62994;52.126;5.596;2022-11-09T06:40:46;12.80;99.90
17565;DHT22;62994;52.126;5.596;2022-11-09T06:43:18;12.80;99.90
17565;DHT22;62994;52.126;5.596;2022-11-09T06:46:01;12.80;99.90
17565;DHT22;62994;52.126;5.596;2022-11-09T06:48:41;12.80;99.90
17565;DHT22;62994;52.126;5.596;2022-11-09T06:51:28;12.70;99.90
17565;DHT22;62994;52.126;5.596;2022-11-09T06:54:12;12.80;99.90
17565;DHT22;62994;52.126;5.596;2022-11-09T06:56:41;12.70;99.90
17565;DHT22;62994;52.126;5.596;2022-11-09T06:59:15;12.80;99.90
17565;DHT22;62994;52.126;5.596;2022-11-09T07:01:44;12.80;99.90
17565;DHT22;62994;52.126;5.596;2022-11-09T07:04:28;12.70;99.90
17565;DHT22;62994;52.126;5.596;2022-11-09T07:07:07;12.70;99.90
17565;DHT22;62994;52.126;5.596;2022-11-09T07:09:52;12.70;99.90
17565;DHT22;62994;52.126;5.596;2022-11-09T07:12:22;12.70;99.90
17565;DHT22;62994;52.126;5.596;2022-11-09T07:14:53;12.70;99.90
17565;DHT22;62994;52.126;5.596;2022-11-09T07:17:40;12.70;99.90
17565;DHT22;62994;52.126;5.596;2022-11-09T07:20:30;12.70;99.90
17565;DHT22;62994;52.126;5.596;2022-11-09T07:23:01;12.70;99.90
17565;DHT22;62994;52.126;5.596;2022-11-09T07:25:34;12.60;99.90
17565;DHT22;62994;52.126;5.596;2022-11-09T07:28:02;12.70;99.90
17565;DHT22;62994;52.126;5.596;2022-11-09T07:30:30;12.50;99.90
17565;DHT22;62994;52.126;5.596;2022-11-09T07:33:03;12.60;99.90
17565;DHT22;62994;52.126;5.596;2022-11-09T07:36:03;12.60;99.90
17565;DHT22;62994;52.126;5.596;2022-11-09T07:38:39;12.60;99.90
17565;DHT22;62994;52.126;5.596;2022-11-09T07:41:13;12.60;99.90
17565;DHT22;62994;52.126;5.596;2022-11-09T07:43:48;12.60;99.90
17565;DHT22;62994;52.126;5.596;2022-11-09T07:46:15;12.70;99.90
17565;DHT22;62994;52.126;5.596;2022-11-09T07:48:45;12.70;99.90
17565;DHT22;62994;52.126;5.596;2022-11-09T07:51:15;12.60;99.90
17565;DHT22;62994;52.126;5.596;2022-11-09T07:53:53;12.60;99.90
17565;DHT22;62994;52.126;5.596;2022-11-09T07:56:31;12.70;99.90
17565;DHT22;62994;52.126;5.596;2022-11-09T07:59:00;12.70;99.90
17565;DHT22;62994;52.126;5.596;2022-11-09T08:01:49;12.70;99.90
17565;DHT22;62994;52.126;5.596;2022-11-09T08:04:36;12.70;99.90
17565;DHT22;62994;52.126;5.596;2022-11-09T08:07:11;12.70;99.90
17565;DHT22;62994;52.126;5.596;2022-11-09T08:09:44;12.70;99.90
17565;DHT22;62994;52.126;5.596;2022-11-09T08:12:13;12.70;99.90
17565;DHT22;62994;52.126;5.596;2022-11-09T08:14:41;12.70;99.90
17565;DHT22;62994;52.126;5.596;2022-11-09T08:17:12;12.80;99.90
17565;DHT22;62994;52.126;5.596;2022-11-09T08:19:40;12.80;99.90
17565;DHT22;62994;52.126;5.596;2022-11-09T08:22:17;12.80;99.90
17565;DHT22;62994;52.126;5.596;2022-11-09T08:24:45;12.80;99.90
17565;DHT22;62994;52.126;5.596;2022-11-09T08:27:16;12.80;99.90
17565;DHT22;62994;52.126;5.596;2022-11-09T08:29:46;12.80;99.90
17565;DHT22;62994;52.126;5.596;2022-11-09T08:32:19;12.90;99.90
17565;DHT22;62994;52.126;5.596;2022-11-09T08:34:53;12.90;99.90
17565;DHT22;62994;52.126;5.596;2022-11-09T08:37:26;12.90;99.90
17565;DHT22;62994;52.126;5.596;2022-11-09T08:39:55;12.90;99.90
17565;DHT22;62994;52.126;5.596;2022-11-09T08:42:27;13.00;99.90
17565;DHT22;62994;52.126;5.596;2022-11-09T08:44:59;13.00;99.90
17565;DHT22;62994;52.126;5.596;2022-11-09T08:47:28;13.00;99.90
17565;DHT22;62994;52.126;5.596;2022-11-09T08:50:10;13.00;99.90
17565;DHT22;62994;52.126;5.596;2022-11-09T08:52:41;13.00;99.90
17565;DHT22;62994;52.126;5.596;2022-11-09T08:55:10;13.10;99.90
17565;DHT22;62994;52.126;5.596;2022-11-09T08:57:40;13.10;99.90
17565;DHT22;62994;52.126;5.596;2022-11-09T09:00:16;13.20;99.90
17565;DHT22;62994;52.126;5.596;2022-11-09T09:02:45;13.20;99.90
17565;DHT22;62994;52.126;5.596;2022-11-09T09:05:17;13.20;99.90
17565;DHT22;62994;52.126;5.596;2022-11-09T09:07:50;13.30;99.90
17565;DHT22;62994;52.126;5.596;2022-11-09T09:10:20;13.30;99.90
17565;DHT22;62994;52.126;5.596;2022-11-09T09:12:59;13.30;99.90
17565;DHT22;62994;52.126;5.596;2022-11-09T09:15:57;13.30;99.90
17565;DHT22;62994;52.126;5.596;2022-11-09T09:18:46;13.40;99.90
17565;DHT22;62994;52.126;5.596;2022-11-09T09:21:20;13.40;99.90
17565;DHT22;62994;52.126;5.596;2022-11-09T09:24:01;13.50;99.90
17565;DHT22;62994;52.126;5.596;2022-11-09T09:26:30;13.50;99.90
17565;DHT22;62994;52.126;5.596;2022-11-09T09:29:02;13.50;99.90
17565;DHT22;62994;52.126;5.596;2022-11-09T09:31:29;13.50;99.90
17565;DHT22;62994;52.126;5.596;2022-11-09T09:34:21;13.60;99.90
17565;DHT22;62994;52.126;5.596;2022-11-09T09:36:53;13.60;99.90
17565;DHT22;62994;52.126;5.596;2022-11-09T09:39:29;13.60;99.90
17565;DHT22;62994;52.126;5.596;2022-11-09T09:42:11;13.70;99.90
17565;DHT22;62994;52.126;5.596;2022-11-09T09:44:55;13.70;99.90
17565;DHT22;62994;52.126;5.596;2022-11-09T09:47:45;13.80;99.90
17565;DHT22;62994;52.126;5.596;2022-11-09T09:50:19;13.90;99.90
17565;DHT22;62994;52.126;5.596;2022-11-09T09:52:59;13.90;99.90
17565;DHT22;62994;52.126;5.596;2022-11-09T09:55:49;13.90;99.90
17565;DHT22;62994;52.126;5.596;2022-11-09T09:58:25;14.00;99.90
17565;DHT22;62994;52.126;5.596;2022-11-09T10:01:16;14.00;99.90
17565;DHT22;62994;52.126;5.596;2022-11-09T10:03:47;14.00;99.90
17565;DHT22;62994;52.126;5.596;2022-11-09T10:06:39;14.10;99.90
17565;DHT22;62994;52.126;5.596;2022-11-09T10:09:26;14.20;99.90
17565;DHT22;62994;52.126;5.596;2022-11-09T10:12:03;14.20;99.90
17565;DHT22;62994;52.126;5.596;2022-11-09T10:14:54;14.20;99.90
17565;DHT22;62994;52.126;5.596;2022-11-09T10:17:36;14.20;99.90
17565;DHT22;62994;52.126;5.596;2022-11-09T10:20:20;14.10;99.90
17565;DHT22;62994;52.126;5.596;2022-11-09T10:22:59;14.10;99.90
17565;DHT22;62994;52.126;5.596;2022-11-09T10:25:37;14.10;99.90
17565;DHT22;62994;52.126;5.596;2022-11-09T10:28:10;14.00;99.90
17565;DHT22;62994;52.126;5.596;2022-11-09T10:30:44;14.20;99.90
17565;DHT22;62994;52.126;5.596;2022-11-09T10:33:15;14.20;99.90
17565;DHT22;62994;52.126;5.596;2022-11-09T10:35:52;14.20;99.90
17565;DHT22;62994;52.126;5.596;2022-11-09T10:38:26;14.20;99.90
17565;DHT22;62994;52.126;5.596;2022-11-09T10:41:00;14.20;99.90
17565;DHT22;62994;52.126;5.596;2022-11-09T10:43:31;14.20;99.90
17565;DHT22;62994;52.126;5.596;2022-11-09T10:46:06;14.20;99.90
17565;DHT22;62994;52.126;5.596;2022-11-09T10:48:36;14.20;99.90
17565;DHT22;62994;52.126;5.596;2022-11-09T10:51:34;14.20;99.90
17565;DHT22;62994;52.126;5.596;2022-11-09T10:54:17;14.20;99.90
17565;DHT22;62994;52.126;5.596;2022-11-09T10:56:50;14.30;99.90
17565;DHT22;62994;52.126;5.596;2022-11-09T10:59:52;14.30;99.90
17565;DHT22;62994;52.126;5.596;2022-11-09T11:02:47;14.40;99.90
17565;DHT22;62994;52.126;5.596;2022-11-09T11:05:48;14.50;99.90
17565;DHT22;62994;52.126;5.596;2022-11-09T11:08:42;14.50;99.90
17565;DHT22;62994;52.126;5.596;2022-11-09T11:11:21;14.60;99.90
17565;DHT22;62994;52.126;5.596;2022-11-09T11:14:16;14.50;99.90
17565;DHT22;62994;52.126;5.596;2022-11-09T11:16:50;14.60;99.90
17565;DHT22;62994;52.126;5.596;2022-11-09T11:19:37;14.60;99.90
17565;DHT22;62994;52.126;5.596;2022-11-09T11:22:22;14.50;99.90
17565;DHT22;62994;52.126;5.596;2022-11-09T11:24:58;14.50;99.90
17565;DHT22;62994;52.126;5.596;2022-11-09T11:27:36;14.60;99.90
17565;DHT22;62994;52.126;5.596;2022-11-09T11:30:16;14.60;99.90
17565;DHT22;62994;52.126;5.596;2022-11-09T11:33:11;14.60;99.90
17565;DHT22;62994;52.126;5.596;2022-11-09T11:35:50;14.60;99.90
17565;DHT22;62994;52.126;5.596;2022-11-09T11:38:34;14.70;99.90
17565;DHT22;62994;52.126;5.596;2022-11-09T11:41:36;14.60;99.90
17565;DHT22;62994;52.126;5.596;2022-11-09T11:44:36;14.70;99.90
17565;DHT22;62994;52.126;5.596;2022-11-09T11:48:18;14.70;99.90
17565;DHT22;62994;52.126;5.596;2022-11-09T11:50:47;14.70;99.90
17565;DHT22;62994;52.126;5.596;2022-11-09T11:53:40;14.80;99.90
17565;DHT22;62994;52.126;5.596;2022-11-09T11:57:07;14.80;99.90
17565;DHT22;62994;52.126;5.596;2022-11-09T12:00:08;14.80;99.90
17565;DHT22;62994;52.126;5.596;2022-11-09T12:09:20;14.60;99.90
17565;DHT22;62994;52.126;5.596;2022-11-09T12:12:17;14.70;99.90
17565;DHT22;62994;52.126;5.596;2022-11-09T12:14:57;14.80;99.90
17565;DHT22;62994;52.126;5.596;2022-11-09T12:17:44;14.80;99.90
17565;DHT22;62994;52.126;5.596;2022-11-09T12:20:24;14.70;99.90
17565;DHT22;62994;52.126;5.596;2022-11-09T12:23:32;14.60;99.90
17565;DHT22;62994;52.126;5.596;2022-11-09T12:26:24;14.70;99.90
17565;DHT22;62994;52.126;5.596;2022-11-09T12:29:15;14.80;99.90
17565;DHT22;62994;52.126;5.596;2022-11-09T12:32:23;14.80;99.90
17565;DHT22;62994;52.126;5.596;2022-11-09T12:35:24;14.90;99.90
17565;DHT22;62994;52.126;5.596;2022-11-09T12:38:34;14.90;99.90
17565;DHT22;62994;52.126;5.596;2022-11-09T12:41:19;15.00;99.90
17565;DHT22;62994;52.126;5.596;2022-11-09T12:43:57;15.00;99.90
17565;DHT22;62994;52.126;5.596;2022-11-09T12:47:10;15.10;99.90
17565;DHT22;62994;52.126;5.596;2022-11-09T12:50:21;15.10;99.90
17565;DHT22;62994;52.126;5.596;2022-11-09T12:53:16;15.10;99.90
17565;DHT22;62994;52.126;5.596;2022-11-09T12:56:10;15.10;99.90
17565;DHT22;62994;52.126;5.596;2022-11-09T12:59:21;15.20;99.90
17565;DHT22;62994;52.126;5.596;2022-11-09T13:02:28;15.20;99.90
17565;DHT22;62994;52.126;5.596;2022-11-09T13:05:35;15.20;99.90
17565;DHT22;62994;52.126;5.596;2022-11-09T13:08:26;15.20;99.90
17565;DHT22;62994;52.126;5.596;2022-11-09T13:12:29;15.20;99.90
17565;DHT22;62994;52.126;5.596;2022-11-09T13:25:32;15.60;99.90
17565;DHT22;62994;52.126;5.596;2022-11-09T13:32:32;15.90;99.90
17565;DHT22;62994;52.126;5.596;2022-11-09T13:45:40;15.60;99.90
17565;DHT22;62994;52.126;5.596;2022-11-09T13:48:36;15.50;99.90
17565;DHT22;62994;52.126;5.596;2022-11-09T13:51:17;15.40;99.90
17565;DHT22;62994;52.126;5.596;2022-11-09T13:57:00;15.40;99.90
17565;DHT22;62994;52.126;5.596;2022-11-09T13:59:50;15.30;99.90
17565;DHT22;62994;52.126;5.596;2022-11-09T14:02:58;15.30;99.90
17565;DHT22;62994;52.126;5.596;2022-11-09T14:05:40;15.30;99.90
17565;DHT22;62994;52.126;5.596;2022-11-09T14:08:21;15.30;99.90
17565;DHT22;62994;52.126;5.596;2022-11-09T14:11:22;15.30;99.90
17565;DHT22;62994;52.126;5.596;2022-11-09T14:14:15;15.30;99.90
17565;DHT22;62994;52.126;5.596;2022-11-09T14:17:02;15.30;99.90
17565;DHT22;62994;52.126;5.596;2022-11-09T14:20:00;15.20;99.90
17565;DHT22;62994;52.126;5.596;2022-11-09T14:22:36;15.20;99.90
17565;DHT22;62994;52.126;5.596;2022-11-09T14:25:21;15.20;99.90
17565;DHT22;62994;52.126;5.596;2022-11-09T14:31:31;15.20;99.90
17565;DHT22;62994;52.126;5.596;2022-11-09T14:34:16;15.10;99.90
17565;DHT22;62994;52.126;5.596;2022-11-09T14:37:02;15.10;99.90
17565;DHT22;62994;52.126;5.596;2022-11-09T14:39:37;15.10;99.90
17565;DHT22;62994;52.126;5.596;2022-11-09T14:42:22;15.10;99.90
17565;DHT22;62994;52.126;5.596;2022-11-09T14:44:53;15.10;99.90
17565;DHT22;62994;52.126;5.596;2022-11-09T14:47:26;15.00;99.90
17565;DHT22;62994;52.126;5.596;2022-11-09T14:50:20;15.00;99.90
17565;DHT22;62994;52.126;5.596;2022-11-09T14:53:03;15.00;99.90
17565;DHT22;62994;52.126;5.596;2022-11-09T14:55:38;15.00;99.90
17565;DHT22;62994;52.126;5.596;2022-11-09T14:58:15;15.00;99.90
17565;DHT22;62994;52.126;5.596;2022-11-09T15:01:19;14.90;99.90
17565;DHT22;62994;52.126;5.596;2022-11-09T15:04:16;14.90;99.90
17565;DHT22;62994;52.126;5.596;2022-11-09T15:07:02;14.90;99.90
17565;DHT22;62994;52.126;5.596;2022-11-09T15:18:48;14.80;99.90
17565;DHT22;62994;52.126;5.596;2022-11-09T15:21:34;14.80;99.90
17565;DHT22;62994;52.126;5.596;2022-11-09T15:24:22;14.70;99.90
17565;DHT22;62994;52.126;5.596;2022-11-09T15:27:41;14.70;99.90
17565;DHT22;62994;52.126;5.596;2022-11-09T15:30:31;14.70;99.90
17565;DHT22;62994;52.126;5.596;2022-11-09T15:33:38;14.70;99.90
17565;DHT22;62994;52.126;5.596;2022-11-09T15:36:40;14.60;99.90
17565;DHT22;62994;52.126;5.596;2022-11-09T15:39:21;14.50;99.90
17565;DHT22;62994;52.126;5.596;2022-11-09T15:42:07;14.50;99.90
17565;DHT22;62994;52.126;5.596;2022-11-09T15:45:01;14.50;99.90
17565;DHT22;62994;52.126;5.596;2022-11-09T15:48:09;14.50;99.90
17565;DHT22;62994;52.126;5.596;2022-11-09T15:50:53;14.50;99.90
17565;DHT22;62994;52.126;5.596;2022-11-09T15:53:40;14.50;99.90
17565;DHT22;62994;52.126;5.596;2022-11-09T15:56:24;14.50;99.90
17565;DHT22;62994;52.126;5.596;2022-11-09T15:58:59;14.50;99.90
17565;DHT22;62994;52.126;5.596;2022-11-09T16:01:35;14.50;99.90
17565;DHT22;62994;52.126;5.596;2022-11-09T16:14:01;14.40;99.90
17565;DHT22;62994;52.126;5.596;2022-11-09T16:16:48;14.30;99.90
17565;DHT22;62994;52.126;5.596;2022-11-09T16:19:20;14.30;99.90
17565;DHT22;62994;52.126;5.596;2022-11-09T16:21:50;14.40;99.90
17565;DHT22;62994;52.126;5.596;2022-11-09T16:24:19;14.40;99.90
17565;DHT22;62994;52.126;5.596;2022-11-09T16:26:51;14.30;99.90
17565;DHT22;62994;52.126;5.596;2022-11-09T16:29:28;14.30;99.90
17565;DHT22;62994;52.126;5.596;2022-11-09T16:32:17;14.30;99.90
17565;DHT22;62994;52.126;5.596;2022-11-09T16:36:33;14.20;99.90
17565;DHT22;62994;52.126;5.596;2022-11-09T16:38:46;14.20;99.90
17565;DHT22;62994;52.126;5.596;2022-11-09T16:41:15;14.10;99.90
17565;DHT22;62994;52.126;5.596;2022-11-09T16:46:40;14.00;99.90
17565;DHT22;62994;52.126;5.596;2022-11-09T16:49:57;14.10;99.90
17565;DHT22;62994;52.126;5.596;2022-11-09T16:52:50;14.10;99.90
17565;DHT22;62994;52.126;5.596;2022-11-09T16:58:21;14.00;99.90
17565;DHT22;62994;52.126;5.596;2022-11-09T17:01:11;14.00;99.90
17565;DHT22;62994;52.126;5.596;2022-11-09T17:04:06;14.00;99.90
17565;DHT22;62994;52.126;5.596;2022-11-09T17:07:25;14.00;99.90
17565;DHT22;62994;52.126;5.596;2022-11-09T17:10:11;14.00;99.90
17565;DHT22;62994;52.126;5.596;2022-11-09T17:13:00;13.90;99.90
17565;DHT22;62994;52.126;5.596;2022-11-09T17:15:45;13.90;99.90
17565;DHT22;62994;52.126;5.596;2022-11-09T17:18:21;13.90;99.90
17565;DHT22;62994;52.126;5.596;2022-11-09T17:21:07;13.90;99.90
17565;DHT22;62994;52.126;5.596;2022-11-09T17:23:53;13.90;99.90
17565;DHT22;62994;52.126;5.596;2022-11-09T17:26:41;13.90;99.90
17565;DHT22;62994;52.126;5.596;2022-11-09T17:29:20;13.90;99.90
17565;DHT22;62994;52.126;5.596;2022-11-09T17:31:53;13.80;99.90
17565;DHT22;62994;52.126;5.596;2022-11-09T17:34:28;13.80;99.90
17565;DHT22;62994;52.126;5.596;2022-11-09T17:36:59;13.80;99.90
17565;DHT22;62994;52.126;5.596;2022-11-09T17:39:41;13.80;99.90
17565;DHT22;62994;52.126;5.596;2022-11-09T17:42:31;13.80;99.90
17565;DHT22;62994;52.126;5.596;2022-11-09T17:45:05;13.70;99.90
17565;DHT22;62994;52.126;5.596;2022-11-09T17:47:36;13.80;99.90
17565;DHT22;62994;52.126;5.596;2022-11-09T17:50:12;13.70;99.90
17565;DHT22;62994;52.126;5.596;2022-11-09T17:52:46;13.70;99.90
17565;DHT22;62994;52.126;5.596;2022-11-09T17:55:32;13.70;99.90
17565;DHT22;62994;52.126;5.596;2022-11-09T17:58:11;13.70;99.90
17565;DHT22;62994;52.126;5.596;2022-11-09T18:00:57;13.70;99.90
17565;DHT22;62994;52.126;5.596;2022-11-09T18:03:33;13.60;99.90
17565;DHT22;62994;52.126;5.596;2022-11-09T18:06:12;13.60;99.90
17565;DHT22;62994;52.126;5.596;2022-11-09T18:08:48;13.70;99.90
17565;DHT22;62994;52.126;5.596;2022-11-09T18:11:20;13.70;99.90
17565;DHT22;62994;52.126;5.596;2022-11-09T18:13:51;13.80;99.90